sensor_id;sensor_type;location;lat;lon;timestamp;P1;durP1;ratioP1;P2;durP2;ratioP2
77872;SDS011;67068;52.116;4.440;2023-09-19T00:01:05;3.47;;;0.80;;
77872;SDS011;67068;52.116;4.440;2023-09-19T00:03:32;5.80;;;1.13;;
77872;SDS011;67068;52.116;4.440;2023-09-19T00:05:57;4.93;;;1.20;;
77872;SDS011;67068;52.116;4.440;2023-09-19T00:08:23;5.40;;;0.90;;
77872;SDS011;67068;52.116;4.440;2023-09-19T00:10:48;6.53;;;1.30;;
77872;SDS011;67068;52.116;4.440;2023-09-19T00:13:13;5.67;;;1.17;;
77872;SDS011;67068;52.116;4.440;2023-09-19T00:15:40;4.68;;;1.10;;
77872;SDS011;67068;52.116;4.440;2023-09-19T00:18:06;5.60;;;1.10;;
77872;SDS011;67068;52.116;4.440;2023-09-19T00:20:32;5.45;;;0.90;;
77872;SDS011;67068;52.116;4.440;2023-09-19T00:22:58;3.95;;;0.95;;
77872;SDS011;67068;52.116;4.440;2023-09-19T00:25:30;5.10;;;1.10;;
77872;SDS011;67068;52.116;4.440;2023-09-19T00:27:57;4.78;;;1.00;;
77872;SDS011;67068;52.116;4.440;2023-09-19T00:30:23;5.40;;;1.00;;
77872;SDS011;67068;52.116;4.440;2023-09-19T00:32:49;4.75;;;1.00;;
77872;SDS011;67068;52.116;4.440;2023-09-19T00:35:19;3.88;;;0.90;;
77872;SDS011;67068;52.116;4.440;2023-09-19T00:37:44;6.05;;;1.23;;
77872;SDS011;67068;52.116;4.440;2023-09-19T00:40:10;4.78;;;1.00;;
77872;SDS011;67068;52.116;4.440;2023-09-19T00:42:40;3.53;;;0.90;;
77872;SDS011;67068;52.116;4.440;2023-09-19T00:45:06;4.85;;;1.00;;
77872;SDS011;67068;52.116;4.440;2023-09-19T00:47:31;5.80;;;1.15;;
77872;SDS011;67068;52.116;4.440;2023-09-19T00:49:57;5.27;;;1.10;;
77872;SDS011;67068;52.116;4.440;2023-09-19T00:52:22;3.60;;;0.90;;
77872;SDS011;67068;52.116;4.440;2023-09-19T00:54:48;4.60;;;0.88;;
77872;SDS011;67068;52.116;4.440;2023-09-19T00:57:14;3.47;;;0.90;;
77872;SDS011;67068;52.116;4.440;2023-09-19T00:59:44;4.97;;;1.05;;
77872;SDS011;67068;52.116;4.440;2023-09-19T01:02:09;3.75;;;0.90;;
77872;SDS011;67068;52.116;4.440;2023-09-19T01:04:35;5.65;;;1.00;;
77872;SDS011;67068;52.116;4.440;2023-09-19T01:07:01;4.63;;;0.93;;
77872;SDS011;67068;52.116;4.440;2023-09-19T01:09:26;4.30;;;0.80;;
77872;SDS011;67068;52.116;4.440;2023-09-19T01:11:53;5.60;;;1.40;;
77872;SDS011;67068;52.116;4.440;2023-09-19T01:14:38;5.13;;;1.00;;
77872;SDS011;67068;52.116;4.440;2023-09-19T01:17:14;5.28;;;0.90;;
77872;SDS011;67068;52.116;4.440;2023-09-19T01:22:23;4.68;;;1.05;;
77872;SDS011;67068;52.116;4.440;2023-09-19T01:27:39;4.78;;;1.20;;
77872;SDS011;67068;52.116;4.440;2023-09-19T01:30:13;3.35;;;0.90;;
77872;SDS011;67068;52.116;4.440;2023-09-19T01:32:39;4.90;;;1.00;;
77872;SDS011;67068;52.116;4.440;2023-09-19T01:35:06;3.78;;;0.80;;
77872;SDS011;67068;52.116;4.440;2023-09-19T01:37:31;5.85;;;0.90;;
77872;SDS011;67068;52.116;4.440;2023-09-19T01:39:58;5.03;;;0.90;;
77872;SDS011;67068;52.116;4.440;2023-09-19T01:42:56;3.10;;;1.00;;
77872;SDS011;67068;52.116;4.440;2023-09-19T01:47:54;4.63;;;1.10;;
77872;SDS011;67068;52.116;4.440;2023-09-19T01:50:29;3.67;;;0.80;;
77872;SDS011;67068;52.116;4.440;2023-09-19T01:53:06;5.85;;;0.93;;
77872;SDS011;67068;52.116;4.440;2023-09-19T01:55:36;5.65;;;1.05;;
77872;SDS011;67068;52.116;4.440;2023-09-19T01:58:16;4.07;;;0.73;;
77872;SDS011;67068;52.116;4.440;2023-09-19T02:00:42;5.95;;;1.00;;
77872;SDS011;67068;52.116;4.440;2023-09-19T02:03:09;7.22;;;0.82;;
77872;SDS011;67068;52.116;4.440;2023-09-19T02:05:35;4.25;;;0.85;;
77872;SDS011;67068;52.116;4.440;2023-09-19T02:08:00;3.93;;;0.90;;
77872;SDS011;67068;52.116;4.440;2023-09-19T02:10:26;4.43;;;0.87;;
77872;SDS011;67068;52.116;4.440;2023-09-19T02:12:51;4.13;;;0.90;;
77872;SDS011;67068;52.116;4.440;2023-09-19T02:15:16;4.97;;;0.97;;
77872;SDS011;67068;52.116;4.440;2023-09-19T02:17:42;6.30;;;1.00;;
77872;SDS011;67068;52.116;4.440;2023-09-19T02:20:08;4.35;;;0.98;;
77872;SDS011;67068;52.116;4.440;2023-09-19T02:22:35;3.47;;;0.82;;
77872;SDS011;67068;52.116;4.440;2023-09-19T02:25:00;4.57;;;0.90;;
77872;SDS011;67068;52.116;4.440;2023-09-19T02:27:26;4.00;;;0.60;;
77872;SDS011;67068;52.116;4.440;2023-09-19T02:29:52;6.17;;;1.00;;
77872;SDS011;67068;52.116;4.440;2023-09-19T02:32:17;4.77;;;0.87;;
77872;SDS011;67068;52.116;4.440;2023-09-19T02:34:43;5.55;;;1.15;;
77872;SDS011;67068;52.116;4.440;2023-09-19T02:37:08;5.67;;;0.80;;
77872;SDS011;67068;52.116;4.440;2023-09-19T02:39:34;4.72;;;0.90;;
77872;SDS011;67068;52.116;4.440;2023-09-19T02:42:00;4.00;;;0.95;;
77872;SDS011;67068;52.116;4.440;2023-09-19T02:44:25;5.18;;;0.80;;
77872;SDS011;67068;52.116;4.440;2023-09-19T02:46:50;5.47;;;0.83;;
77872;SDS011;67068;52.116;4.440;2023-09-19T02:49:16;3.83;;;0.95;;
77872;SDS011;67068;52.116;4.440;2023-09-19T02:51:43;3.80;;;0.80;;
77872;SDS011;67068;52.116;4.440;2023-09-19T02:54:08;5.95;;;1.23;;
77872;SDS011;67068;52.116;4.440;2023-09-19T02:56:33;5.20;;;0.80;;
77872;SDS011;67068;52.116;4.440;2023-09-19T02:59:00;4.53;;;1.13;;
77872;SDS011;67068;52.116;4.440;2023-09-19T03:01:26;5.25;;;1.15;;
77872;SDS011;67068;52.116;4.440;2023-09-19T03:03:52;3.83;;;0.82;;
77872;SDS011;67068;52.116;4.440;2023-09-19T03:06:18;4.82;;;1.05;;
77872;SDS011;67068;52.116;4.440;2023-09-19T03:08:44;5.20;;;0.90;;
77872;SDS011;67068;52.116;4.440;2023-09-19T03:11:11;3.03;;;0.88;;
77872;SDS011;67068;52.116;4.440;2023-09-19T03:13:38;3.70;;;0.85;;
77872;SDS011;67068;52.116;4.440;2023-09-19T03:16:06;3.42;;;0.80;;
77872;SDS011;67068;52.116;4.440;2023-09-19T03:18:32;4.13;;;0.80;;
77872;SDS011;67068;52.116;4.440;2023-09-19T03:20:58;2.85;;;0.70;;
77872;SDS011;67068;52.116;4.440;2023-09-19T03:23:26;5.10;;;0.80;;
77872;SDS011;67068;52.116;4.440;2023-09-19T03:25:52;4.07;;;0.73;;
77872;SDS011;67068;52.116;4.440;2023-09-19T03:28:18;5.30;;;0.70;;
77872;SDS011;67068;52.116;4.440;2023-09-19T03:30:43;3.67;;;0.90;;
77872;SDS011;67068;52.116;4.440;2023-09-19T03:33:08;3.85;;;0.93;;
77872;SDS011;67068;52.116;4.440;2023-09-19T03:35:37;4.50;;;0.70;;
77872;SDS011;67068;52.116;4.440;2023-09-19T03:38:03;3.97;;;0.70;;
77872;SDS011;67068;52.116;4.440;2023-09-19T03:40:28;6.45;;;0.98;;
77872;SDS011;67068;52.116;4.440;2023-09-19T03:42:53;5.27;;;1.03;;
77872;SDS011;67068;52.116;4.440;2023-09-19T03:45:19;3.65;;;0.75;;
77872;SDS011;67068;52.116;4.440;2023-09-19T03:47:44;2.28;;;0.70;;
77872;SDS011;67068;52.116;4.440;2023-09-19T03:50:12;4.85;;;0.70;;
77872;SDS011;67068;52.116;4.440;2023-09-19T03:52:37;4.23;;;0.77;;
77872;SDS011;67068;52.116;4.440;2023-09-19T03:55:02;5.43;;;0.90;;
77872;SDS011;67068;52.116;4.440;2023-09-19T03:57:29;4.30;;;0.98;;
77872;SDS011;67068;52.116;4.440;2023-09-19T03:59:54;5.07;;;0.90;;
77872;SDS011;67068;52.116;4.440;2023-09-19T04:02:20;5.07;;;0.77;;
77872;SDS011;67068;52.116;4.440;2023-09-19T04:04:49;4.97;;;0.85;;
77872;SDS011;67068;52.116;4.440;2023-09-19T04:07:15;2.75;;;0.63;;
77872;SDS011;67068;52.116;4.440;2023-09-19T04:09:40;5.17;;;0.90;;
77872;SDS011;67068;52.116;4.440;2023-09-19T04:12:05;4.07;;;0.80;;
77872;SDS011;67068;52.116;4.440;2023-09-19T04:14:33;5.03;;;1.00;;
77872;SDS011;67068;52.116;4.440;2023-09-19T04:16:59;4.67;;;0.80;;
77872;SDS011;67068;52.116;4.440;2023-09-19T04:19:25;4.35;;;0.80;;
77872;SDS011;67068;52.116;4.440;2023-09-19T04:21:50;5.37;;;0.90;;
77872;SDS011;67068;52.116;4.440;2023-09-19T04:24:15;3.63;;;0.67;;
77872;SDS011;67068;52.116;4.440;2023-09-19T04:26:41;6.13;;;1.00;;
77872;SDS011;67068;52.116;4.440;2023-09-19T04:29:07;4.22;;;0.68;;
77872;SDS011;67068;52.116;4.440;2023-09-19T04:31:34;3.58;;;0.63;;
77872;SDS011;67068;52.116;4.440;2023-09-19T04:33:59;3.10;;;0.63;;
77872;SDS011;67068;52.116;4.440;2023-09-19T04:36:29;3.60;;;0.70;;
77872;SDS011;67068;52.116;4.440;2023-09-19T04:38:55;2.50;;;0.63;;
77872;SDS011;67068;52.116;4.440;2023-09-19T04:41:20;4.57;;;0.80;;
77872;SDS011;67068;52.116;4.440;2023-09-19T04:43:47;4.13;;;0.77;;
77872;SDS011;67068;52.116;4.440;2023-09-19T04:46:12;5.45;;;0.60;;
77872;SDS011;67068;52.116;4.440;2023-09-19T04:48:39;2.75;;;0.70;;
77872;SDS011;67068;52.116;4.440;2023-09-19T04:51:05;2.90;;;0.70;;
77872;SDS011;67068;52.116;4.440;2023-09-19T04:53:30;3.33;;;0.73;;
77872;SDS011;67068;52.116;4.440;2023-09-19T04:55:55;5.00;;;0.90;;
77872;SDS011;67068;52.116;4.440;2023-09-19T04:58:21;4.57;;;0.65;;
77872;SDS011;67068;52.116;4.440;2023-09-19T05:00:47;3.65;;;0.70;;
77872;SDS011;67068;52.116;4.440;2023-09-19T05:03:12;1.23;;;0.40;;
77872;SDS011;67068;52.116;4.440;2023-09-19T05:05:37;4.97;;;0.90;;
77872;SDS011;67068;52.116;4.440;2023-09-19T05:08:04;5.47;;;0.88;;
77872;SDS011;67068;52.116;4.440;2023-09-19T05:10:30;2.50;;;0.50;;
77872;SDS011;67068;52.116;4.440;2023-09-19T05:12:55;4.20;;;0.75;;
77872;SDS011;67068;52.116;4.440;2023-09-19T05:15:21;2.90;;;0.70;;
77872;SDS011;67068;52.116;4.440;2023-09-19T05:17:52;3.57;;;0.80;;
77872;SDS011;67068;52.116;4.440;2023-09-19T05:20:20;2.45;;;0.65;;
77872;SDS011;67068;52.116;4.440;2023-09-19T05:23:01;3.53;;;0.63;;
77872;SDS011;67068;52.116;4.440;2023-09-19T05:25:27;2.50;;;0.68;;
77872;SDS011;67068;52.116;4.440;2023-09-19T05:27:54;4.35;;;0.70;;
77872;SDS011;67068;52.116;4.440;2023-09-19T05:30:19;4.47;;;0.63;;
77872;SDS011;67068;52.116;4.440;2023-09-19T05:32:45;3.60;;;0.80;;
77872;SDS011;67068;52.116;4.440;2023-09-19T05:35:10;3.15;;;0.60;;
77872;SDS011;67068;52.116;4.440;2023-09-19T05:37:38;3.30;;;0.60;;
77872;SDS011;67068;52.116;4.440;2023-09-19T05:40:03;4.63;;;0.60;;
77872;SDS011;67068;52.116;4.440;2023-09-19T05:42:32;2.30;;;0.50;;
77872;SDS011;67068;52.116;4.440;2023-09-19T05:44:57;4.07;;;0.70;;
77872;SDS011;67068;52.116;4.440;2023-09-19T05:47:23;4.22;;;0.70;;
77872;SDS011;67068;52.116;4.440;2023-09-19T05:49:50;5.65;;;0.73;;
77872;SDS011;67068;52.116;4.440;2023-09-19T05:52:15;5.95;;;0.85;;
77872;SDS011;67068;52.116;4.440;2023-09-19T05:54:42;5.05;;;0.90;;
77872;SDS011;67068;52.116;4.440;2023-09-19T05:57:08;4.80;;;0.93;;
77872;SDS011;67068;52.116;4.440;2023-09-19T05:59:33;5.30;;;0.90;;
77872;SDS011;67068;52.116;4.440;2023-09-19T06:01:59;3.45;;;0.77;;
77872;SDS011;67068;52.116;4.440;2023-09-19T06:04:24;2.20;;;0.77;;
77872;SDS011;67068;52.116;4.440;2023-09-19T06:06:50;6.18;;;1.00;;
77872;SDS011;67068;52.116;4.440;2023-09-19T06:09:16;5.30;;;0.80;;
77872;SDS011;67068;52.116;4.440;2023-09-19T06:11:42;4.55;;;0.55;;
77872;SDS011;67068;52.116;4.440;2023-09-19T06:14:08;2.83;;;0.50;;
77872;SDS011;67068;52.116;4.440;2023-09-19T06:16:35;3.78;;;0.80;;
77872;SDS011;67068;52.116;4.440;2023-09-19T06:19:00;4.45;;;0.65;;
77872;SDS011;67068;52.116;4.440;2023-09-19T06:21:29;3.00;;;0.50;;
77872;SDS011;67068;52.116;4.440;2023-09-19T06:23:54;4.55;;;0.95;;
77872;SDS011;67068;52.116;4.440;2023-09-19T06:26:20;4.65;;;0.77;;
77872;SDS011;67068;52.116;4.440;2023-09-19T06:28:45;4.32;;;0.80;;
77872;SDS011;67068;52.116;4.440;2023-09-19T06:31:10;4.30;;;0.70;;
77872;SDS011;67068;52.116;4.440;2023-09-19T06:33:38;3.20;;;0.70;;
77872;SDS011;67068;52.116;4.440;2023-09-19T06:38:29;3.58;;;0.82;;
77872;SDS011;67068;52.116;4.440;2023-09-19T06:40:55;3.50;;;0.60;;
77872;SDS011;67068;52.116;4.440;2023-09-19T06:43:20;3.60;;;0.70;;
77872;SDS011;67068;52.116;4.440;2023-09-19T06:45:45;5.10;;;0.90;;
77872;SDS011;67068;52.116;4.440;2023-09-19T06:48:11;2.20;;;0.80;;
77872;SDS011;67068;52.116;4.440;2023-09-19T06:50:37;5.35;;;1.00;;
77872;SDS011;67068;52.116;4.440;2023-09-19T06:53:03;3.55;;;0.70;;
77872;SDS011;67068;52.116;4.440;2023-09-19T06:55:29;2.60;;;0.50;;
77872;SDS011;67068;52.116;4.440;2023-09-19T06:57:56;4.07;;;0.90;;
77872;SDS011;67068;52.116;4.440;2023-09-19T07:00:21;4.13;;;0.80;;
77872;SDS011;67068;52.116;4.440;2023-09-19T07:03:03;5.45;;;0.90;;
77872;SDS011;67068;52.116;4.440;2023-09-19T07:05:31;4.15;;;1.00;;
77872;SDS011;67068;52.116;4.440;2023-09-19T07:07:59;5.15;;;0.90;;
77872;SDS011;67068;52.116;4.440;2023-09-19T07:10:25;5.03;;;1.00;;
77872;SDS011;67068;52.116;4.440;2023-09-19T07:13:01;3.78;;;0.75;;
77872;SDS011;67068;52.116;4.440;2023-09-19T07:15:27;5.60;;;1.00;;
77872;SDS011;67068;52.116;4.440;2023-09-19T07:17:53;12.82;;;1.50;;
77872;SDS011;67068;52.116;4.440;2023-09-19T07:20:19;3.95;;;0.90;;
77872;SDS011;67068;52.116;4.440;2023-09-19T07:22:44;6.00;;;0.95;;
77872;SDS011;67068;52.116;4.440;2023-09-19T07:25:09;5.33;;;0.90;;
77872;SDS011;67068;52.116;4.440;2023-09-19T07:27:35;6.13;;;1.03;;
77872;SDS011;67068;52.116;4.440;2023-09-19T07:30:00;6.30;;;1.43;;
77872;SDS011;67068;52.116;4.440;2023-09-19T07:32:25;7.90;;;1.60;;
77872;SDS011;67068;52.116;4.440;2023-09-19T07:34:50;10.33;;;2.07;;
77872;SDS011;67068;52.116;4.440;2023-09-19T07:37:15;7.87;;;1.70;;
77872;SDS011;67068;52.116;4.440;2023-09-19T07:39:41;6.03;;;1.30;;
77872;SDS011;67068;52.116;4.440;2023-09-19T07:42:07;5.72;;;1.30;;
77872;SDS011;67068;52.116;4.440;2023-09-19T07:44:32;6.07;;;1.27;;
77872;SDS011;67068;52.116;4.440;2023-09-19T07:46:57;5.50;;;1.10;;
77872;SDS011;67068;52.116;4.440;2023-09-19T07:49:22;6.47;;;1.30;;
77872;SDS011;67068;52.116;4.440;2023-09-19T07:51:48;6.83;;;1.13;;
77872;SDS011;67068;52.116;4.440;2023-09-19T07:54:13;5.77;;;1.27;;
77872;SDS011;67068;52.116;4.440;2023-09-19T07:56:39;7.55;;;1.50;;
77872;SDS011;67068;52.116;4.440;2023-09-19T07:59:04;8.00;;;1.30;;
77872;SDS011;67068;52.116;4.440;2023-09-19T08:01:30;7.32;;;1.13;;
77872;SDS011;67068;52.116;4.440;2023-09-19T08:03:55;7.63;;;1.33;;
77872;SDS011;67068;52.116;4.440;2023-09-19T08:06:20;6.40;;;1.23;;
77872;SDS011;67068;52.116;4.440;2023-09-19T08:08:46;5.87;;;1.20;;
77872;SDS011;67068;52.116;4.440;2023-09-19T08:11:11;6.07;;;1.20;;
77872;SDS011;67068;52.116;4.440;2023-09-19T08:13:37;6.07;;;1.17;;
77872;SDS011;67068;52.116;4.440;2023-09-19T08:16:08;5.22;;;1.10;;
77872;SDS011;67068;52.116;4.440;2023-09-19T08:18:33;5.82;;;1.20;;
77872;SDS011;67068;52.116;4.440;2023-09-19T08:20:58;3.97;;;0.87;;
77872;SDS011;67068;52.116;4.440;2023-09-19T08:23:25;6.50;;;1.23;;
77872;SDS011;67068;52.116;4.440;2023-09-19T08:25:50;5.50;;;1.00;;
77872;SDS011;67068;52.116;4.440;2023-09-19T08:28:20;9.45;;;1.25;;
77872;SDS011;67068;52.116;4.440;2023-09-19T08:30:49;5.00;;;1.10;;
77872;SDS011;67068;52.116;4.440;2023-09-19T08:33:14;7.70;;;1.13;;
77872;SDS011;67068;52.116;4.440;2023-09-19T08:35:42;6.55;;;1.00;;
77872;SDS011;67068;52.116;4.440;2023-09-19T08:38:08;7.13;;;1.42;;
77872;SDS011;67068;52.116;4.440;2023-09-19T08:40:36;5.60;;;1.10;;
77872;SDS011;67068;52.116;4.440;2023-09-19T08:43:04;5.38;;;1.20;;
77872;SDS011;67068;52.116;4.440;2023-09-19T08:45:29;6.63;;;1.20;;
77872;SDS011;67068;52.116;4.440;2023-09-19T08:50:49;8.68;;;1.23;;
77872;SDS011;67068;52.116;4.440;2023-09-19T08:53:20;6.20;;;1.20;;
77872;SDS011;67068;52.116;4.440;2023-09-19T08:55:47;8.60;;;1.73;;
77872;SDS011;67068;52.116;4.440;2023-09-19T08:58:14;7.22;;;1.52;;
77872;SDS011;67068;52.116;4.440;2023-09-19T09:00:41;6.72;;;1.50;;
77872;SDS011;67068;52.116;4.440;2023-09-19T09:03:10;7.70;;;1.58;;
77872;SDS011;67068;52.116;4.440;2023-09-19T09:05:36;7.57;;;1.58;;
77872;SDS011;67068;52.116;4.440;2023-09-19T09:08:05;5.88;;;1.40;;
77872;SDS011;67068;52.116;4.440;2023-09-19T09:10:31;11.60;;;1.77;;
77872;SDS011;67068;52.116;4.440;2023-09-19T09:12:57;7.43;;;1.70;;
77872;SDS011;67068;52.116;4.440;2023-09-19T09:15:23;9.73;;;1.80;;
77872;SDS011;67068;52.116;4.440;2023-09-19T09:17:52;8.15;;;1.45;;
77872;SDS011;67068;52.116;4.440;2023-09-19T09:20:21;8.05;;;1.63;;
77872;SDS011;67068;52.116;4.440;2023-09-19T09:22:50;8.80;;;1.57;;
77872;SDS011;67068;52.116;4.440;2023-09-19T09:25:15;7.63;;;1.50;;
77872;SDS011;67068;52.116;4.440;2023-09-19T09:27:43;8.55;;;1.90;;
77872;SDS011;67068;52.116;4.440;2023-09-19T09:30:08;7.63;;;1.50;;
77872;SDS011;67068;52.116;4.440;2023-09-19T09:32:33;8.38;;;1.40;;
77872;SDS011;67068;52.116;4.440;2023-09-19T09:35:01;10.40;;;1.80;;
77872;SDS011;67068;52.116;4.440;2023-09-19T09:37:29;8.77;;;1.98;;
77872;SDS011;67068;52.116;4.440;2023-09-19T09:39:58;8.25;;;1.50;;
77872;SDS011;67068;52.116;4.440;2023-09-19T09:42:36;8.52;;;1.63;;
77872;SDS011;67068;52.116;4.440;2023-09-19T09:45:25;7.40;;;1.33;;
77872;SDS011;67068;52.116;4.440;2023-09-19T09:47:58;7.95;;;1.52;;
77872;SDS011;67068;52.116;4.440;2023-09-19T09:52:54;9.48;;;1.75;;
77872;SDS011;67068;52.116;4.440;2023-09-19T09:55:25;8.07;;;1.77;;
77872;SDS011;67068;52.116;4.440;2023-09-19T09:57:59;9.80;;;1.57;;
77872;SDS011;67068;52.116;4.440;2023-09-19T10:00:39;6.35;;;1.35;;
77872;SDS011;67068;52.116;4.440;2023-09-19T10:03:20;9.05;;;1.85;;
77872;SDS011;67068;52.116;4.440;2023-09-19T10:05:53;7.45;;;1.50;;
77872;SDS011;67068;52.116;4.440;2023-09-19T10:08:20;7.93;;;1.50;;
77872;SDS011;67068;52.116;4.440;2023-09-19T10:10:45;9.73;;;1.50;;
77872;SDS011;67068;52.116;4.440;2023-09-19T10:13:17;6.35;;;1.30;;
77872;SDS011;67068;52.116;4.440;2023-09-19T10:15:49;8.02;;;1.60;;
77872;SDS011;67068;52.116;4.440;2023-09-19T10:18:20;8.05;;;1.58;;
77872;SDS011;67068;52.116;4.440;2023-09-19T10:20:46;10.85;;;1.60;;
77872;SDS011;67068;52.116;4.440;2023-09-19T10:23:13;7.38;;;1.30;;
77872;SDS011;67068;52.116;4.440;2023-09-19T10:25:43;8.65;;;1.38;;
77872;SDS011;67068;52.116;4.440;2023-09-19T10:28:12;7.43;;;1.48;;
77872;SDS011;67068;52.116;4.440;2023-09-19T10:30:40;7.00;;;1.58;;
77872;SDS011;67068;52.116;4.440;2023-09-19T10:33:09;6.93;;;1.35;;
77872;SDS011;67068;52.116;4.440;2023-09-19T10:35:36;7.88;;;1.48;;
77872;SDS011;67068;52.116;4.440;2023-09-19T10:38:03;7.90;;;1.20;;
77872;SDS011;67068;52.116;4.440;2023-09-19T10:40:29;6.00;;;1.27;;
77872;SDS011;67068;52.116;4.440;2023-09-19T10:43:00;5.97;;;0.93;;
77872;SDS011;67068;52.116;4.440;2023-09-19T10:45:26;6.35;;;1.13;;
77872;SDS011;67068;52.116;4.440;2023-09-19T10:47:54;5.07;;;1.10;;
77872;SDS011;67068;52.116;4.440;2023-09-19T10:50:21;7.22;;;1.33;;
77872;SDS011;67068;52.116;4.440;2023-09-19T10:52:47;6.90;;;1.55;;
77872;SDS011;67068;52.116;4.440;2023-09-19T10:55:18;6.75;;;1.42;;
77872;SDS011;67068;52.116;4.440;2023-09-19T10:57:45;7.22;;;1.45;;
77872;SDS011;67068;52.116;4.440;2023-09-19T11:00:11;7.00;;;1.30;;
77872;SDS011;67068;52.116;4.440;2023-09-19T11:03:15;6.78;;;1.25;;
77872;SDS011;67068;52.116;4.440;2023-09-19T11:05:43;5.03;;;0.90;;
77872;SDS011;67068;52.116;4.440;2023-09-19T11:08:24;8.55;;;1.33;;
77872;SDS011;67068;52.116;4.440;2023-09-19T11:10:53;7.05;;;1.25;;
77872;SDS011;67068;52.116;4.440;2023-09-19T11:13:29;5.60;;;1.20;;
77872;SDS011;67068;52.116;4.440;2023-09-19T11:24:22;7.63;;;1.40;;
77872;SDS011;67068;52.116;4.440;2023-09-19T11:26:40;5.20;;;1.20;;
77872;SDS011;67068;52.116;4.440;2023-09-19T11:29:28;6.22;;;1.00;;
77872;SDS011;67068;52.116;4.440;2023-09-19T11:31:54;8.38;;;1.42;;
77872;SDS011;67068;52.116;4.440;2023-09-19T11:39:38;18.88;;;2.53;;
77872;SDS011;67068;52.116;4.440;2023-09-19T11:44:48;6.60;;;1.30;;
77872;SDS011;67068;52.116;4.440;2023-09-19T11:47:16;8.25;;;1.58;;
77872;SDS011;67068;52.116;4.440;2023-09-19T11:49:44;6.47;;;1.40;;
77872;SDS011;67068;52.116;4.440;2023-09-19T11:52:09;7.78;;;1.20;;
77872;SDS011;67068;52.116;4.440;2023-09-19T11:54:35;9.53;;;1.50;;
77872;SDS011;67068;52.116;4.440;2023-09-19T11:57:02;7.90;;;1.23;;
77872;SDS011;67068;52.116;4.440;2023-09-19T11:59:28;5.68;;;1.10;;
77872;SDS011;67068;52.116;4.440;2023-09-19T12:01:58;5.75;;;1.05;;
77872;SDS011;67068;52.116;4.440;2023-09-19T12:04:42;7.22;;;1.15;;
77872;SDS011;67068;52.116;4.440;2023-09-19T12:07:13;9.40;;;1.33;;
77872;SDS011;67068;52.116;4.440;2023-09-19T12:09:48;9.77;;;1.58;;
77872;SDS011;67068;52.116;4.440;2023-09-19T12:14:49;7.55;;;1.10;;
77872;SDS011;67068;52.116;4.440;2023-09-19T12:17:15;5.25;;;1.08;;
77872;SDS011;67068;52.116;4.440;2023-09-19T12:19:49;6.37;;;1.00;;
77872;SDS011;67068;52.116;4.440;2023-09-19T12:22:15;5.85;;;0.90;;
77872;SDS011;67068;52.116;4.440;2023-09-19T12:24:41;7.47;;;1.00;;
77872;SDS011;67068;52.116;4.440;2023-09-19T12:27:09;7.47;;;1.20;;
77872;SDS011;67068;52.116;4.440;2023-09-19T12:32:08;7.00;;;1.20;;
77872;SDS011;67068;52.116;4.440;2023-09-19T12:34:33;6.87;;;1.47;;
77872;SDS011;67068;52.116;4.440;2023-09-19T12:39:40;5.25;;;1.20;;
77872;SDS011;67068;52.116;4.440;2023-09-19T12:42:07;4.93;;;1.10;;
77872;SDS011;67068;52.116;4.440;2023-09-19T12:44:34;6.75;;;1.10;;
77872;SDS011;67068;52.116;4.440;2023-09-19T12:47:00;7.13;;;1.30;;
77872;SDS011;67068;52.116;4.440;2023-09-19T12:49:26;4.95;;;1.00;;
77872;SDS011;67068;52.116;4.440;2023-09-19T12:51:54;5.00;;;0.90;;
77872;SDS011;67068;52.116;4.440;2023-09-19T12:54:19;5.32;;;1.00;;
77872;SDS011;67068;52.116;4.440;2023-09-19T12:56:45;5.20;;;1.00;;
77872;SDS011;67068;52.116;4.440;2023-09-19T12:59:12;5.55;;;1.10;;
77872;SDS011;67068;52.116;4.440;2023-09-19T13:01:41;6.30;;;1.02;;
77872;SDS011;67068;52.116;4.440;2023-09-19T13:06:37;5.97;;;0.95;;
77872;SDS011;67068;52.116;4.440;2023-09-19T13:09:08;6.28;;;1.00;;
77872;SDS011;67068;52.116;4.440;2023-09-19T13:11:38;4.80;;;0.95;;
77872;SDS011;67068;52.116;4.440;2023-09-19T13:14:21;5.70;;;0.95;;
77872;SDS011;67068;52.116;4.440;2023-09-19T13:19:34;6.35;;;0.90;;
77872;SDS011;67068;52.116;4.440;2023-09-19T13:22:00;6.20;;;1.15;;
77872;SDS011;67068;52.116;4.440;2023-09-19T13:24:25;3.67;;;0.88;;
77872;SDS011;67068;52.116;4.440;2023-09-19T13:26:52;2.85;;;0.80;;
77872;SDS011;67068;52.116;4.440;2023-09-19T13:29:17;5.30;;;1.13;;
77872;SDS011;67068;52.116;4.440;2023-09-19T13:31:52;5.30;;;0.77;;
77872;SDS011;67068;52.116;4.440;2023-09-19T13:34:20;5.43;;;0.82;;
77872;SDS011;67068;52.116;4.440;2023-09-19T13:36:45;5.53;;;0.98;;
77872;SDS011;67068;52.116;4.440;2023-09-19T13:39:13;4.20;;;0.85;;
77872;SDS011;67068;52.116;4.440;2023-09-19T13:41:39;3.53;;;0.88;;
77872;SDS011;67068;52.116;4.440;2023-09-19T13:44:04;2.60;;;0.77;;
77872;SDS011;67068;52.116;4.440;2023-09-19T13:46:30;6.82;;;1.10;;
77872;SDS011;67068;52.116;4.440;2023-09-19T13:48:58;3.22;;;0.80;;
77872;SDS011;67068;52.116;4.440;2023-09-19T13:51:25;4.43;;;0.80;;
77872;SDS011;67068;52.116;4.440;2023-09-19T13:53:51;3.83;;;1.00;;
77872;SDS011;67068;52.116;4.440;2023-09-19T13:56:16;5.03;;;0.80;;
77872;SDS011;67068;52.116;4.440;2023-09-19T13:58:41;4.93;;;0.93;;
77872;SDS011;67068;52.116;4.440;2023-09-19T14:01:07;3.00;;;0.80;;
77872;SDS011;67068;52.116;4.440;2023-09-19T14:03:37;3.78;;;0.82;;
77872;SDS011;67068;52.116;4.440;2023-09-19T14:06:02;3.47;;;0.80;;
77872;SDS011;67068;52.116;4.440;2023-09-19T14:08:27;4.00;;;0.90;;
77872;SDS011;67068;52.116;4.440;2023-09-19T14:10:53;4.43;;;1.00;;
77872;SDS011;67068;52.116;4.440;2023-09-19T14:13:18;3.10;;;0.80;;
77872;SDS011;67068;52.116;4.440;2023-09-19T14:15:45;4.25;;;1.10;;
77872;SDS011;67068;52.116;4.440;2023-09-19T14:18:10;4.43;;;0.90;;
77872;SDS011;67068;52.116;4.440;2023-09-19T14:20:37;4.90;;;1.00;;
77872;SDS011;67068;52.116;4.440;2023-09-19T14:23:03;4.53;;;0.80;;
77872;SDS011;67068;52.116;4.440;2023-09-19T14:25:28;6.00;;;1.05;;
77872;SDS011;67068;52.116;4.440;2023-09-19T14:27:55;4.65;;;1.00;;
77872;SDS011;67068;52.116;4.440;2023-09-19T14:30:20;3.60;;;0.83;;
77872;SDS011;67068;52.116;4.440;2023-09-19T14:32:46;4.57;;;0.88;;
77872;SDS011;67068;52.116;4.440;2023-09-19T14:35:11;4.47;;;0.90;;
77872;SDS011;67068;52.116;4.440;2023-09-19T14:37:39;3.60;;;0.85;;
77872;SDS011;67068;52.116;4.440;2023-09-19T14:40:04;4.57;;;0.90;;
77872;SDS011;67068;52.116;4.440;2023-09-19T14:42:33;5.95;;;0.80;;
77872;SDS011;67068;52.116;4.440;2023-09-19T14:45:01;3.25;;;0.88;;
77872;SDS011;67068;52.116;4.440;2023-09-19T14:47:26;2.95;;;0.77;;
77872;SDS011;67068;52.116;4.440;2023-09-19T14:49:52;5.40;;;1.00;;
77872;SDS011;67068;52.116;4.440;2023-09-19T14:52:18;4.40;;;0.90;;
77872;SDS011;67068;52.116;4.440;2023-09-19T14:54:44;3.50;;;0.80;;
77872;SDS011;67068;52.116;4.440;2023-09-19T14:57:09;4.00;;;1.10;;
77872;SDS011;67068;52.116;4.440;2023-09-19T14:59:35;5.05;;;1.10;;
77872;SDS011;67068;52.116;4.440;2023-09-19T15:04:29;2.87;;;0.70;;
77872;SDS011;67068;52.116;4.440;2023-09-19T15:06:54;4.00;;;0.95;;
77872;SDS011;67068;52.116;4.440;2023-09-19T15:09:21;4.40;;;0.80;;
77872;SDS011;67068;52.116;4.440;2023-09-19T15:11:49;4.75;;;0.95;;
77872;SDS011;67068;52.116;4.440;2023-09-19T15:14:14;7.13;;;1.03;;
77872;SDS011;67068;52.116;4.440;2023-09-19T15:16:39;3.73;;;1.00;;
77872;SDS011;67068;52.116;4.440;2023-09-19T15:19:05;2.78;;;0.85;;
77872;SDS011;67068;52.116;4.440;2023-09-19T15:21:32;5.28;;;0.90;;
77872;SDS011;67068;52.116;4.440;2023-09-19T15:23:57;3.87;;;1.00;;
77872;SDS011;67068;52.116;4.440;2023-09-19T15:26:22;6.60;;;1.20;;
77872;SDS011;67068;52.116;4.440;2023-09-19T15:28:50;6.85;;;1.25;;
77872;SDS011;67068;52.116;4.440;2023-09-19T15:31:15;4.80;;;0.90;;
77872;SDS011;67068;52.116;4.440;2023-09-19T15:33:41;3.03;;;0.90;;
77872;SDS011;67068;52.116;4.440;2023-09-19T15:36:10;6.72;;;1.00;;